Schedule Details


Flight Number: CTN341
Departure: Sarajevo (LQSA) at 06:30
Arrival: Franjo Tudman (LDZA) at 07:20
Route: BOSNA L608 KOMAR L187 TEBLI

Weather Information
LQSA 191330Z VRB01KT 9999 FEW055 11/M01 Q1016 NOSIG
LDZA 191330Z VRB05KT CAVOK 13/M03 Q1017 NOSIG
Schedule Frequency

Route Map